createdAt,value
2016-12-25T00:00:07.510Z,967.81
2016-12-25T00:01:19.598Z,967.79
2016-12-25T00:02:08.182Z,967.78
2016-12-25T00:03:22.723Z,967.84
2016-12-25T00:04:09.273Z,967.83
2016-12-25T00:05:08.538Z,967.81
2016-12-25T00:06:08.382Z,967.85
2016-12-25T00:07:08.019Z,967.81
2016-12-25T00:08:07.644Z,967.78
2016-12-25T00:09:08.193Z,967.85
2016-12-25T00:10:08.082Z,967.91
2016-12-25T00:11:07.699Z,967.89
2016-12-25T00:12:08.341Z,967.84
2016-12-25T00:13:07.870Z,967.86
2016-12-25T00:14:07.375Z,967.86
2016-12-25T00:15:08.037Z,967.83
2016-12-25T00:16:07.649Z,967.83
2016-12-25T00:17:07.948Z,967.87
2016-12-25T00:18:07.645Z,967.79
2016-12-25T00:19:08.293Z,967.79
2016-12-25T00:20:08.046Z,967.89
2016-12-25T00:21:07.847Z,967.84
2016-12-25T00:22:07.389Z,967.84
2016-12-25T00:23:07.895Z,967.92
2016-12-25T00:24:07.375Z,967.89
2016-12-25T00:25:08.050Z,967.86
2016-12-25T00:26:07.599Z,967.79
2016-12-25T00:27:08.253Z,967.77
2016-12-25T00:28:08.246Z,967.69
2016-12-25T00:29:07.794Z,967.73
2016-12-25T00:30:07.266Z,967.76
2016-12-25T00:31:07.774Z,967.81
2016-12-25T00:32:07.240Z,967.78
2016-12-25T00:33:08.049Z,967.82
2016-12-25T00:34:07.606Z,967.79
2016-12-25T00:35:08.182Z,967.78
2016-12-25T00:36:07.720Z,967.78
2016-12-25T00:37:08.417Z,967.78
2016-12-25T00:38:08.052Z,967.86
2016-12-25T00:39:07.513Z,967.87
2016-12-25T00:40:08.344Z,967.72
2016-12-25T00:41:07.904Z,967.82
2016-12-25T00:42:07.413Z,967.81
2016-12-25T00:43:08.094Z,967.80
2016-12-25T00:44:07.665Z,967.71
2016-12-25T00:45:08.162Z,967.73
2016-12-25T00:46:07.643Z,967.74
2016-12-25T00:47:08.273Z,967.72
2016-12-25T00:48:08.053Z,967.81
2016-12-25T00:49:07.852Z,967.68
2016-12-25T00:50:07.356Z,967.82
2016-12-25T00:51:07.971Z,967.76
2016-12-25T00:52:07.527Z,967.87
2016-12-25T00:53:08.162Z,967.74
2016-12-25T00:54:07.655Z,967.74
2016-12-25T00:55:08.341Z,967.64
2016-12-25T00:56:07.911Z,967.62
2016-12-25T00:57:07.507Z,967.70
2016-12-25T00:58:08.082Z,967.57
2016-12-25T00:59:07.663Z,967.62
2016-12-25T01:00:08.329Z,967.62
2016-12-25T01:01:07.903Z,967.74
2016-12-25T01:02:07.455Z,967.82
2016-12-25T01:03:07.945Z,967.81
2016-12-25T01:04:07.834Z,967.85
2016-12-25T01:05:08.187Z,967.71
2016-12-25T01:06:07.800Z,967.74
2016-12-25T01:07:07.332Z,967.76
2016-12-25T01:08:08.915Z,967.82
2016-12-25T01:09:08.103Z,967.85
2016-12-25T01:10:07.801Z,967.80
2016-12-25T01:11:08.102Z,967.82
2016-12-25T01:12:08.174Z,967.79
2016-12-25T01:13:15.367Z,967.79
2016-12-25T01:14:09.694Z,967.73
2016-12-25T01:15:08.586Z,967.67
2016-12-25T01:16:08.716Z,967.75
2016-12-25T01:17:08.934Z,967.68
2016-12-25T01:18:09.023Z,967.67
2016-12-25T01:19:08.560Z,967.60
2016-12-25T01:20:09.101Z,967.63
2016-12-25T01:21:20.184Z,967.57
2016-12-25T01:22:09.043Z,967.53
2016-12-25T01:23:45.075Z,967.58
2016-12-25T01:24:10.747Z,967.52
2016-12-25T01:26:02.314Z,967.53
2016-12-25T01:26:08.478Z,967.49
2016-12-25T01:27:08.116Z,967.45
2016-12-25T01:28:07.818Z,967.53
2016-12-25T01:29:08.158Z,967.47
2016-12-25T01:30:08.643Z,967.48
2016-12-25T01:31:08.288Z,967.53
2016-12-25T01:32:07.860Z,967.48
2016-12-25T01:33:07.616Z,967.53
2016-12-25T01:34:08.402Z,967.41
2016-12-25T01:35:18.521Z,967.47
2016-12-25T01:36:09.156Z,967.54
2016-12-25T01:37:08.130Z,967.67
2016-12-25T01:38:07.770Z,967.50
2016-12-25T01:39:07.336Z,967.60
2016-12-25T01:40:08.089Z,967.54
2016-12-25T01:41:07.665Z,967.59
2016-12-25T01:42:07.420Z,967.57
2016-12-25T01:43:08.032Z,967.51
2016-12-25T01:44:07.609Z,967.50
2016-12-25T01:45:07.527Z,967.56
2016-12-25T01:46:07.781Z,967.56
2016-12-25T01:47:07.335Z,967.59
2016-12-25T01:48:07.643Z,967.52
2016-12-25T01:49:08.231Z,967.54
2016-12-25T01:50:07.799Z,967.58
2016-12-25T01:51:07.248Z,967.59
2016-12-25T01:52:07.781Z,967.65
2016-12-25T01:53:08.241Z,967.60
2016-12-25T01:54:07.649Z,967.61
2016-12-25T01:55:08.092Z,967.61
2016-12-25T01:56:08.194Z,967.64
2016-12-25T01:57:07.774Z,967.72
2016-12-25T01:58:07.294Z,967.59
2016-12-25T01:59:07.912Z,967.59
2016-12-25T02:00:07.545Z,967.63
2016-12-25T02:01:08.315Z,967.61
2016-12-25T02:02:07.923Z,967.62
2016-12-25T02:03:08.064Z,967.67
2016-12-25T02:04:07.781Z,967.74
2016-12-25T02:05:07.721Z,967.76
2016-12-25T02:06:08.343Z,967.74
2016-12-25T02:07:07.916Z,967.74
2016-12-25T02:08:07.501Z,967.77
2016-12-25T02:09:08.205Z,967.74
2016-12-25T02:10:08.297Z,967.73
2016-12-25T02:11:07.904Z,967.80
2016-12-25T02:12:07.959Z,967.86
2016-12-25T02:13:07.506Z,967.84
2016-12-25T02:14:07.666Z,967.84
2016-12-25T02:15:08.336Z,967.81
2016-12-25T02:16:07.917Z,967.78
2016-12-25T02:17:08.042Z,967.78
2016-12-25T02:18:07.619Z,967.76
2016-12-25T02:19:08.115Z,967.75
2016-12-25T02:20:07.602Z,967.76
2016-12-25T02:21:08.163Z,967.74
2016-12-25T02:22:08.234Z,967.68
2016-12-25T02:23:07.738Z,967.72
2016-12-25T02:24:08.298Z,967.70
2016-12-25T02:25:07.825Z,967.69
2016-12-25T02:26:07.614Z,967.68
2016-12-25T02:27:08.170Z,967.65
2016-12-25T02:28:08.031Z,967.69
2016-12-25T02:29:07.843Z,967.61
2016-12-25T02:30:07.403Z,967.71
2016-12-25T02:31:07.910Z,967.69
2016-12-25T02:32:07.391Z,967.58
2016-12-25T02:33:07.709Z,967.62
2016-12-25T02:34:07.513Z,967.64
2016-12-25T02:35:08.160Z,967.62
2016-12-25T02:36:07.329Z,967.68
2016-12-25T02:37:07.819Z,967.64
2016-12-25T02:38:07.340Z,967.63
2016-12-25T02:39:08.052Z,967.63
2016-12-25T02:40:07.588Z,967.60
2016-12-25T02:41:08.927Z,967.53
2016-12-25T02:42:13.125Z,967.62
2016-12-25T02:43:19.191Z,967.47
2016-12-25T02:44:08.098Z,967.58
2016-12-25T02:45:37.749Z,967.54
2016-12-25T02:46:29.993Z,967.56
2016-12-25T02:47:08.226Z,967.62
2016-12-25T02:48:08.857Z,967.68
2016-12-25T02:49:08.287Z,967.59
2016-12-25T02:50:07.849Z,967.64
2016-12-25T02:51:07.989Z,967.58
2016-12-25T02:52:07.318Z,967.55
2016-12-25T02:53:07.819Z,967.62
2016-12-25T02:54:08.273Z,967.51
2016-12-25T02:55:07.840Z,967.56
2016-12-25T02:56:07.401Z,967.51
2016-12-25T02:57:07.957Z,967.45
2016-12-25T02:58:07.832Z,967.39
2016-12-25T02:59:07.724Z,967.34
2016-12-25T03:00:08.610Z,967.32
2016-12-25T03:01:08.237Z,967.28
2016-12-25T03:02:08.675Z,967.30
2016-12-25T03:03:08.540Z,967.22
2016-12-25T03:04:08.165Z,967.24
2016-12-25T03:05:07.751Z,967.29
2016-12-25T03:06:07.370Z,967.26
2016-12-25T03:07:07.703Z,967.26
2016-12-25T03:08:08.292Z,967.20
2016-12-25T03:09:07.833Z,967.14
2016-12-25T03:10:07.628Z,967.17
2016-12-25T03:11:08.245Z,967.19
2016-12-25T03:12:07.777Z,967.26
2016-12-25T03:13:07.698Z,967.24
2016-12-25T03:14:08.343Z,967.23
2016-12-25T03:15:07.924Z,967.27
2016-12-25T03:16:07.504Z,967.32
2016-12-25T03:17:08.277Z,967.24
2016-12-25T03:18:07.826Z,967.29
2016-12-25T03:19:07.692Z,967.23
2016-12-25T03:20:08.322Z,967.27
2016-12-25T03:21:08.030Z,967.19
2016-12-25T03:22:07.857Z,967.16
2016-12-25T03:23:08.121Z,967.15
2016-12-25T03:24:07.676Z,967.16
2016-12-25T03:25:08.216Z,967.22
2016-12-25T03:26:07.972Z,967.24
2016-12-25T03:27:07.426Z,967.20
2016-12-25T03:28:08.039Z,967.14
2016-12-25T03:29:07.849Z,967.14
2016-12-25T03:30:07.361Z,967.05
2016-12-25T03:31:08.163Z,967.06
2016-12-25T03:32:07.701Z,967.04
2016-12-25T03:33:08.238Z,967.06
2016-12-25T03:34:07.862Z,967.00
2016-12-25T03:35:14.515Z,967.05
2016-12-25T03:36:08.065Z,967.10
2016-12-25T03:37:07.673Z,967.10
2016-12-25T03:38:08.352Z,967.14
2016-12-25T03:39:07.902Z,967.16
2016-12-25T03:40:08.745Z,967.12
2016-12-25T03:41:07.612Z,967.19
2016-12-25T03:42:08.150Z,967.24
2016-12-25T03:43:07.626Z,967.22
2016-12-25T03:44:08.060Z,967.17
2016-12-25T03:45:08.051Z,967.19
2016-12-25T03:46:07.661Z,967.23
2016-12-25T03:47:08.251Z,967.24
2016-12-25T03:48:07.703Z,967.13
2016-12-25T03:49:08.033Z,967.15
2016-12-25T03:50:08.592Z,967.14
2016-12-25T03:51:08.297Z,967.11
2016-12-25T03:52:07.874Z,967.03
2016-12-25T03:53:07.390Z,967.10
2016-12-25T03:54:07.978Z,966.96
2016-12-25T03:55:07.560Z,966.98
2016-12-25T03:56:08.644Z,966.90
2016-12-25T03:57:09.231Z,966.95
2016-12-25T03:58:09.850Z,966.89
2016-12-25T03:59:16.482Z,967.10
2016-12-25T04:00:07.898Z,966.85
2016-12-25T04:01:07.443Z,966.91
2016-12-25T04:02:08.078Z,966.91
2016-12-25T04:03:09.228Z,966.90
2016-12-25T04:04:09.497Z,966.86
2016-12-25T04:05:11.164Z,967.05
2016-12-25T04:06:07.647Z,967.00
2016-12-25T04:07:09.143Z,967.13
2016-12-25T04:08:08.317Z,967.10
2016-12-25T04:09:07.965Z,967.15
2016-12-25T04:10:08.182Z,967.18
2016-12-25T04:11:07.880Z,967.18
2016-12-25T04:12:07.455Z,967.17
2016-12-25T04:13:08.040Z,967.15
2016-12-25T04:14:07.531Z,967.24
2016-12-25T04:15:08.136Z,967.18
2016-12-25T04:16:07.739Z,967.19
2016-12-25T04:17:08.432Z,967.13
2016-12-25T04:18:08.067Z,967.02
2016-12-25T04:19:07.548Z,967.00
2016-12-25T04:20:07.742Z,967.06
2016-12-25T04:21:08.010Z,967.11
2016-12-25T04:22:07.646Z,967.12
2016-12-25T04:23:08.224Z,967.12
2016-12-25T04:24:07.897Z,966.89
2016-12-25T04:25:08.248Z,967.06
2016-12-25T04:26:08.136Z,967.10
2016-12-25T04:27:08.319Z,966.97
2016-12-25T04:28:07.884Z,966.99
2016-12-25T04:29:07.490Z,967.17
2016-12-25T04:30:08.138Z,967.07
2016-12-25T04:31:07.758Z,967.31
2016-12-25T04:32:07.347Z,967.16
2016-12-25T04:33:07.935Z,967.16
2016-12-25T04:34:13.049Z,967.18
2016-12-25T04:35:07.509Z,967.03
2016-12-25T04:36:08.041Z,967.06
2016-12-25T04:37:07.485Z,967.02
2016-12-25T04:38:07.759Z,966.95
2016-12-25T04:39:07.355Z,966.86
2016-12-25T04:40:07.958Z,966.79
2016-12-25T04:41:07.449Z,966.76
2016-12-25T04:42:08.081Z,966.85
2016-12-25T04:43:08.116Z,966.83
2016-12-25T04:44:07.647Z,966.92
2016-12-25T04:45:08.270Z,966.96
2016-12-25T04:46:13.447Z,967.00
2016-12-25T04:47:08.060Z,966.97
2016-12-25T04:48:07.628Z,966.84
2016-12-25T04:49:08.191Z,966.87
2016-12-25T04:50:07.685Z,966.86
2016-12-25T04:51:08.692Z,966.80
2016-12-25T04:52:08.272Z,966.77
2016-12-25T04:53:07.880Z,966.71
2016-12-25T04:54:07.418Z,966.64
2016-12-25T04:55:07.981Z,966.66
2016-12-25T04:56:07.529Z,966.71
2016-12-25T04:57:08.108Z,966.73
2016-12-25T04:58:07.606Z,966.73
2016-12-25T04:59:08.230Z,966.74
2016-12-25T05:00:07.730Z,966.76
2016-12-25T05:01:08.255Z,966.72
2016-12-25T05:02:07.747Z,966.82
2016-12-25T05:03:08.386Z,966.85
2016-12-25T05:04:07.910Z,966.84
2016-12-25T05:05:07.448Z,966.88
2016-12-25T05:06:08.512Z,966.88
2016-12-25T05:07:08.154Z,966.89
2016-12-25T05:08:07.667Z,966.93
2016-12-25T05:09:08.289Z,966.92
2016-12-25T05:10:07.893Z,966.94
2016-12-25T05:11:07.403Z,966.91
2016-12-25T05:12:08.143Z,966.88
2016-12-25T05:13:07.669Z,966.98
2016-12-25T05:14:09.034Z,966.94
2016-12-25T05:15:07.711Z,966.97
2016-12-25T05:16:19.791Z,966.94
2016-12-25T05:17:08.602Z,967.00
2016-12-25T05:18:09.265Z,967.01
2016-12-25T05:20:08.573Z,967.02
2016-12-25T05:21:19.308Z,967.04
2016-12-25T05:22:09.284Z,967.14
2016-12-25T05:24:16.404Z,967.15
2016-12-25T05:25:10.781Z,967.12
2016-12-25T05:26:19.783Z,967.04
2016-12-25T05:27:07.985Z,967.09
2016-12-25T05:28:07.641Z,967.05
2016-12-25T05:29:09.578Z,967.01
2016-12-25T05:30:15.739Z,966.96
2016-12-25T05:31:13.860Z,967.02
2016-12-25T05:32:07.631Z,966.98
2016-12-25T05:33:08.312Z,966.97
2016-12-25T05:34:07.845Z,966.91
2016-12-25T05:35:07.538Z,966.88
2016-12-25T05:36:08.090Z,966.79
2016-12-25T05:37:07.680Z,966.79
2016-12-25T05:38:08.299Z,966.81
2016-12-25T05:39:07.870Z,966.77
2016-12-25T05:40:07.438Z,966.81
2016-12-25T05:41:08.037Z,966.78
2016-12-25T05:42:07.751Z,966.83
2016-12-25T05:43:07.310Z,966.96
2016-12-25T05:44:08.768Z,967.01
2016-12-25T05:45:07.300Z,967.14
2016-12-25T05:46:07.972Z,967.10
2016-12-25T05:47:09.053Z,967.08
2016-12-25T05:48:07.696Z,967.14
2016-12-25T05:49:08.275Z,967.20
2016-12-25T05:50:08.077Z,967.21
2016-12-25T05:51:07.665Z,967.14
2016-12-25T05:52:08.284Z,967.19
2016-12-25T05:53:07.850Z,967.19
2016-12-25T05:54:07.396Z,967.20
2016-12-25T05:55:08.010Z,967.22
2016-12-25T05:56:07.561Z,967.30
2016-12-25T05:57:08.989Z,967.36
2016-12-25T05:58:07.601Z,967.44
2016-12-25T05:59:08.227Z,967.49
2016-12-25T06:00:07.857Z,967.52
2016-12-25T06:01:07.387Z,967.57
2016-12-25T06:02:08.024Z,967.58
2016-12-25T06:03:07.611Z,967.51
2016-12-25T06:04:08.260Z,967.45
2016-12-25T06:05:08.854Z,967.28
2016-12-25T06:06:07.382Z,967.34
2016-12-25T06:07:08.010Z,967.45
2016-12-25T06:08:07.550Z,967.49
2016-12-25T06:09:08.080Z,967.50
2016-12-25T06:10:08.275Z,967.46
2016-12-25T06:11:07.851Z,967.49
2016-12-25T06:12:07.397Z,967.60
2016-12-25T06:13:08.000Z,967.56
2016-12-25T06:14:07.900Z,967.56
2016-12-25T06:15:07.709Z,967.64
2016-12-25T06:16:08.676Z,967.60
2016-12-25T06:17:08.642Z,967.63
2016-12-25T06:18:08.251Z,967.57
2016-12-25T06:19:07.808Z,967.56
2016-12-25T06:20:07.338Z,967.59
2016-12-25T06:21:07.961Z,967.58
2016-12-25T06:22:07.401Z,967.61
2016-12-25T06:23:07.971Z,967.60
2016-12-25T06:24:07.578Z,967.56
2016-12-25T06:25:08.308Z,967.59
2016-12-25T06:26:07.960Z,967.58
2016-12-25T06:27:07.610Z,967.53
2016-12-25T06:28:08.217Z,967.53
2016-12-25T06:29:07.849Z,967.48
2016-12-25T06:30:07.383Z,967.41
2016-12-25T06:31:07.953Z,967.38
2016-12-25T06:32:07.497Z,967.35
2016-12-25T06:33:08.034Z,967.27
2016-12-25T06:34:07.632Z,967.29
2016-12-25T06:35:08.364Z,967.25
2016-12-25T06:36:08.241Z,967.32
2016-12-25T06:37:09.266Z,967.37
2016-12-25T06:38:09.233Z,967.31
2016-12-25T06:39:08.759Z,967.29
2016-12-25T06:40:08.953Z,967.25
2016-12-25T06:41:14.457Z,967.27
2016-12-25T06:42:08.464Z,967.29
2016-12-25T06:43:08.865Z,967.28
2016-12-25T06:44:23.167Z,967.27
2016-12-25T06:45:07.758Z,967.26
2016-12-25T06:46:10.864Z,967.26
2016-12-25T06:47:09.096Z,967.32
2016-12-25T06:49:19.719Z,967.24
2016-12-25T06:51:14.238Z,967.24
2016-12-25T06:52:13.346Z,967.21
2016-12-25T06:53:09.509Z,967.24
2016-12-25T06:54:08.144Z,967.20
2016-12-25T06:55:07.930Z,967.21
2016-12-25T06:56:09.046Z,967.22
2016-12-25T06:57:07.696Z,967.23
2016-12-25T06:59:08.982Z,967.25
2016-12-25T07:00:07.639Z,967.30
2016-12-25T07:01:08.357Z,967.38
2016-12-25T07:02:09.074Z,967.40
2016-12-25T07:03:08.547Z,967.44
2016-12-25T07:04:08.095Z,967.39
2016-12-25T07:05:07.680Z,967.38
2016-12-25T07:06:08.272Z,967.34
2016-12-25T07:07:07.793Z,967.33
2016-12-25T07:08:13.238Z,967.32
2016-12-25T07:09:07.889Z,967.28
2016-12-25T07:10:07.432Z,967.33
2016-12-25T07:11:08.129Z,967.35
2016-12-25T07:12:07.696Z,967.39
2016-12-25T07:13:08.282Z,967.36
2016-12-25T07:14:07.873Z,967.36
2016-12-25T07:15:07.490Z,967.37
2016-12-25T07:16:08.037Z,967.34
2016-12-25T07:17:07.769Z,967.32
2016-12-25T07:18:07.368Z,967.39
2016-12-25T07:19:08.063Z,967.35
2016-12-25T07:20:07.716Z,967.35
2016-12-25T07:21:08.318Z,967.37
2016-12-25T07:22:07.870Z,967.38
2016-12-25T07:23:07.420Z,967.38
2016-12-25T07:24:08.004Z,967.33
2016-12-25T07:25:07.583Z,967.33
2016-12-25T07:26:08.147Z,967.31
2016-12-25T07:27:07.743Z,967.37
2016-12-25T07:28:08.328Z,967.40
2016-12-25T07:29:07.830Z,967.39
2016-12-25T07:30:07.344Z,967.47
2016-12-25T07:31:07.811Z,967.45
2016-12-25T07:32:07.674Z,967.52
2016-12-25T07:33:08.284Z,967.48
2016-12-25T07:34:07.861Z,967.47
2016-12-25T07:35:07.453Z,967.44
2016-12-25T07:36:08.039Z,967.42
2016-12-25T07:37:07.863Z,967.38
2016-12-25T07:38:08.287Z,967.38
2016-12-25T07:39:07.879Z,967.42
2016-12-25T07:40:07.460Z,967.40
2016-12-25T07:41:08.073Z,967.37
2016-12-25T07:42:07.715Z,967.35
2016-12-25T07:43:08.325Z,967.31
2016-12-25T07:44:07.951Z,967.25
2016-12-25T07:45:07.620Z,967.17
2016-12-25T07:46:08.195Z,967.09
2016-12-25T07:47:07.750Z,967.13
2016-12-25T07:48:07.289Z,967.26
2016-12-25T07:49:07.855Z,967.33
2016-12-25T07:50:07.386Z,967.30
2016-12-25T07:51:07.999Z,967.32
2016-12-25T07:52:08.352Z,967.39
2016-12-25T07:53:07.935Z,967.37
2016-12-25T07:54:07.542Z,967.31
2016-12-25T07:55:08.154Z,967.36
2016-12-25T07:56:07.650Z,967.30
2016-12-25T07:57:08.194Z,967.31
2016-12-25T07:58:07.704Z,967.28
2016-12-25T07:59:08.275Z,967.27
2016-12-25T08:00:07.907Z,967.20
2016-12-25T08:01:07.492Z,967.10
2016-12-25T08:02:08.839Z,967.07
2016-12-25T08:03:07.473Z,966.99
2016-12-25T08:04:09.137Z,966.91
2016-12-25T08:05:13.042Z,966.88
2016-12-25T08:06:10.211Z,966.94
2016-12-25T08:08:08.086Z,966.93
2016-12-25T08:09:08.232Z,966.97
2016-12-25T08:10:07.789Z,966.98
2016-12-25T08:11:07.926Z,966.86
2016-12-25T08:12:07.857Z,966.98
2016-12-25T08:13:07.702Z,966.96
2016-12-25T08:14:08.459Z,967.01
2016-12-25T08:15:21.229Z,967.10
2016-12-25T08:17:21.180Z,967.04
2016-12-25T08:18:19.677Z,967.08
2016-12-25T08:19:15.350Z,967.07
2016-12-25T08:20:13.699Z,967.14
2016-12-25T08:21:08.473Z,967.11
2016-12-25T08:22:09.518Z,967.07
2016-12-25T08:23:08.192Z,967.15
2016-12-25T08:24:07.790Z,967.08
2016-12-25T08:25:07.882Z,967.17
2016-12-25T08:26:08.549Z,967.11
2016-12-25T08:27:08.834Z,967.08
2016-12-25T08:28:07.880Z,967.06
2016-12-25T08:29:08.112Z,967.23
2016-12-25T08:30:07.725Z,967.12
2016-12-25T08:31:08.264Z,967.12
2016-12-25T08:32:07.828Z,967.13
2016-12-25T08:33:07.304Z,967.02
2016-12-25T08:34:07.787Z,967.08
2016-12-25T08:35:07.248Z,967.06
2016-12-25T08:36:07.899Z,967.20
2016-12-25T08:37:07.468Z,967.14
2016-12-25T08:38:08.164Z,967.30
2016-12-25T08:39:07.791Z,967.14
2016-12-25T08:40:07.369Z,967.22
2016-12-25T08:41:07.976Z,967.13
2016-12-25T08:42:07.540Z,967.26
2016-12-25T08:43:14.026Z,967.24
2016-12-25T08:44:07.576Z,967.23
2016-12-25T08:45:08.216Z,967.25
2016-12-25T08:46:08.428Z,967.27
2016-12-25T08:47:08.958Z,967.31
2016-12-25T08:48:07.543Z,967.34
2016-12-25T08:49:08.156Z,967.29
2016-12-25T08:50:08.593Z,967.30
2016-12-25T08:51:08.164Z,967.23
2016-12-25T08:52:07.746Z,967.24
2016-12-25T08:53:08.309Z,967.30
2016-12-25T08:54:07.939Z,967.30
2016-12-25T08:55:07.444Z,967.40
2016-12-25T08:56:08.016Z,967.33
2016-12-25T08:57:08.477Z,967.45
2016-12-25T08:58:08.977Z,967.43
2016-12-25T08:59:07.482Z,967.51
2016-12-25T09:00:08.051Z,967.45
2016-12-25T09:01:07.596Z,967.47
2016-12-25T09:02:08.154Z,967.48
2016-12-25T09:03:08.139Z,967.52
2016-12-25T09:04:07.739Z,967.51
2016-12-25T09:05:08.344Z,967.54
2016-12-25T09:06:07.935Z,967.46
2016-12-25T09:07:07.549Z,967.45
2016-12-25T09:08:08.232Z,967.45
2016-12-25T09:09:07.773Z,967.43
2016-12-25T09:10:09.014Z,967.46
2016-12-25T09:11:07.652Z,967.43
2016-12-25T09:12:08.247Z,967.40
2016-12-25T09:13:07.832Z,967.37
2016-12-25T09:14:07.349Z,967.26
2016-12-25T09:15:07.868Z,967.39
2016-12-25T09:16:07.367Z,967.18
2016-12-25T09:17:08.110Z,967.37
2016-12-25T09:18:07.869Z,967.24
2016-12-25T09:19:07.388Z,967.23
2016-12-25T09:20:07.835Z,967.17
2016-12-25T09:21:07.905Z,967.15
2016-12-25T09:22:07.439Z,967.14
2016-12-25T09:23:08.038Z,967.11
2016-12-25T09:24:13.154Z,967.08
2016-12-25T09:25:07.764Z,967.14
2016-12-25T09:26:07.418Z,967.02
2016-12-25T09:27:08.010Z,967.11
2016-12-25T09:28:07.594Z,967.04
2016-12-25T09:29:08.259Z,966.99
2016-12-25T09:30:07.820Z,967.03
2016-12-25T09:31:07.386Z,967.12
2016-12-25T09:32:07.322Z,967.04
2016-12-25T09:33:24.719Z,967.07
2016-12-25T09:34:08.827Z,967.06
2016-12-25T09:35:09.449Z,966.96
2016-12-25T09:36:08.629Z,967.09
2016-12-25T09:37:08.908Z,967.11
2016-12-25T09:38:10.985Z,967.05
2016-12-25T09:39:09.281Z,967.01
2016-12-25T09:40:19.799Z,967.09
2016-12-25T09:41:08.489Z,967.08
2016-12-25T09:42:40.850Z,966.93
2016-12-25T09:43:08.365Z,967.03
2016-12-25T09:44:08.287Z,966.91
2016-12-25T09:45:09.081Z,966.89
2016-12-25T09:46:07.649Z,966.92
2016-12-25T09:47:08.332Z,966.98
2016-12-25T09:48:07.971Z,967.05
2016-12-25T09:49:08.572Z,966.99
2016-12-25T09:50:08.208Z,966.99
2016-12-25T09:51:13.849Z,966.98
2016-12-25T09:52:07.398Z,967.02
2016-12-25T09:53:08.051Z,967.03
2016-12-25T09:54:07.525Z,966.97
2016-12-25T09:55:08.115Z,966.89
2016-12-25T09:56:07.713Z,966.91
2016-12-25T09:57:08.351Z,966.90
2016-12-25T09:58:07.860Z,966.83
2016-12-25T09:59:08.307Z,966.78
2016-12-25T10:00:07.907Z,966.80
2016-12-25T10:01:07.755Z,966.76
2016-12-25T10:02:08.347Z,966.76
2016-12-25T10:03:08.167Z,966.79
2016-12-25T10:04:07.737Z,966.80
2016-12-25T10:05:08.288Z,966.77
2016-12-25T10:06:07.803Z,966.93
2016-12-25T10:07:07.393Z,966.87
2016-12-25T10:08:08.013Z,966.88
2016-12-25T10:09:07.548Z,966.87
2016-12-25T10:10:08.136Z,966.89
2016-12-25T10:11:07.722Z,966.83
2016-12-25T10:12:08.308Z,966.86
2016-12-25T10:13:07.795Z,966.94
2016-12-25T10:14:07.435Z,967.08
2016-12-25T10:15:08.008Z,966.95
2016-12-25T10:16:07.634Z,966.94
2016-12-25T10:17:08.296Z,966.98
2016-12-25T10:18:07.947Z,966.89
2016-12-25T10:19:07.520Z,966.88
2016-12-25T10:20:08.175Z,966.91
2016-12-25T10:21:07.766Z,966.88
2016-12-25T10:22:07.381Z,966.85
2016-12-25T10:23:08.059Z,966.78
2016-12-25T10:24:07.634Z,966.75
2016-12-25T10:25:08.284Z,966.78
2016-12-25T10:26:07.843Z,966.76
2016-12-25T10:27:07.340Z,966.86
2016-12-25T10:28:07.896Z,966.67
2016-12-25T10:29:07.495Z,966.66
2016-12-25T10:30:08.119Z,966.58
2016-12-25T10:31:07.690Z,966.56
2016-12-25T10:32:08.280Z,966.60
2016-12-25T10:33:07.894Z,966.66
2016-12-25T10:34:07.449Z,966.71
2016-12-25T10:35:08.439Z,966.68
2016-12-25T10:36:08.028Z,966.94
2016-12-25T10:37:07.519Z,966.62
2016-12-25T10:38:08.189Z,966.71
2016-12-25T10:39:08.087Z,966.69
2016-12-25T10:40:07.698Z,966.63
2016-12-25T10:41:08.230Z,966.68
2016-12-25T10:42:07.391Z,966.63
2016-12-25T10:43:07.975Z,966.65
2016-12-25T10:44:08.924Z,966.60
2016-12-25T10:45:07.290Z,966.59
2016-12-25T10:46:08.735Z,966.65
2016-12-25T10:47:09.287Z,966.55
2016-12-25T10:48:07.899Z,966.46
2016-12-25T10:49:08.600Z,966.38
2016-12-25T10:50:09.040Z,966.39
2016-12-25T10:51:07.611Z,966.31
2016-12-25T10:52:08.216Z,966.26
2016-12-25T10:53:08.676Z,966.21
2016-12-25T10:54:17.695Z,966.29
2016-12-25T10:55:08.795Z,966.14
2016-12-25T10:56:07.853Z,966.36
2016-12-25T10:57:10.619Z,966.31
2016-12-25T10:58:09.193Z,966.41
2016-12-25T10:59:08.281Z,966.40
2016-12-25T11:00:09.349Z,966.42
2016-12-25T11:01:09.264Z,966.34
2016-12-25T11:02:08.825Z,966.34
2016-12-25T11:03:14.708Z,966.39
2016-12-25T11:04:08.575Z,966.32
2016-12-25T11:05:07.965Z,966.31
2016-12-25T11:06:09.783Z,966.42
2016-12-25T11:07:34.557Z,966.46
2016-12-25T11:08:08.187Z,966.38
2016-12-25T11:09:08.168Z,966.50
2016-12-25T11:10:09.345Z,966.51
2016-12-25T11:11:16.578Z,966.42
2016-12-25T11:12:19.061Z,966.35
2016-12-25T11:13:29.475Z,966.43
2016-12-25T11:14:09.847Z,966.36
2016-12-25T11:15:18.576Z,966.35
2016-12-25T11:16:09.197Z,966.38
2016-12-25T11:17:47.798Z,966.22
2016-12-25T11:18:48.360Z,966.11
2016-12-25T11:19:28.516Z,966.04
2016-12-25T11:20:10.018Z,966.16
2016-12-25T11:21:07.529Z,966.06
2016-12-25T11:22:18.016Z,966.10
2016-12-25T11:23:10.757Z,966.07
2016-12-25T11:24:08.159Z,966.06
2016-12-25T11:25:08.184Z,966.15
2016-12-25T11:26:09.216Z,966.10
2016-12-25T11:27:07.474Z,966.07
2016-12-25T11:28:08.065Z,966.00
2016-12-25T11:29:07.730Z,966.00
2016-12-25T11:30:09.209Z,965.99
2016-12-25T11:31:07.941Z,966.03
2016-12-25T11:32:08.008Z,966.14
2016-12-25T11:33:08.701Z,966.03
2016-12-25T11:34:07.930Z,966.02
2016-12-25T11:35:07.447Z,966.05
2016-12-25T11:36:08.151Z,965.99
2016-12-25T11:37:07.902Z,966.00
2016-12-25T11:38:07.482Z,966.09
2016-12-25T11:39:08.048Z,966.08
2016-12-25T11:40:07.626Z,966.11
2016-12-25T11:41:08.202Z,966.06
2016-12-25T11:42:07.762Z,966.01
2016-12-25T11:43:07.362Z,966.03
2016-12-25T11:44:07.981Z,966.06
2016-12-25T11:45:07.570Z,966.12
2016-12-25T11:46:08.140Z,966.02
2016-12-25T11:47:07.794Z,966.02
2016-12-25T11:48:07.407Z,965.99
2016-12-25T11:49:07.913Z,965.96
2016-12-25T11:50:07.463Z,965.88
2016-12-25T11:51:08.102Z,965.88
2016-12-25T11:52:07.677Z,965.81
2016-12-25T11:53:08.240Z,965.87
2016-12-25T11:54:07.802Z,965.91
2016-12-25T11:55:07.342Z,965.82
2016-12-25T11:56:07.957Z,965.81
2016-12-25T11:57:07.414Z,965.83
2016-12-25T11:58:08.060Z,965.82
2016-12-25T11:59:07.546Z,965.86
2016-12-25T12:00:08.973Z,965.84
2016-12-25T12:01:07.521Z,965.73
2016-12-25T12:02:08.094Z,965.74
2016-12-25T12:03:07.784Z,965.70
2016-12-25T12:04:07.383Z,965.67
2016-12-25T12:05:07.948Z,965.59
2016-12-25T12:06:07.422Z,965.51
2016-12-25T12:07:07.968Z,965.70
2016-12-25T12:08:07.469Z,965.62
2016-12-25T12:09:08.100Z,965.64
2016-12-25T12:10:07.713Z,965.68
2016-12-25T12:11:08.299Z,965.60
2016-12-25T12:12:07.911Z,965.59
2016-12-25T12:13:07.445Z,965.63
2016-12-25T12:14:08.033Z,965.61
2016-12-25T12:15:08.477Z,965.58
2016-12-25T12:16:08.040Z,965.47
2016-12-25T12:17:07.722Z,965.49
2016-12-25T12:18:08.327Z,965.40
2016-12-25T12:19:07.976Z,965.42
2016-12-25T12:20:07.589Z,965.34
2016-12-25T12:21:08.182Z,965.37
2016-12-25T12:22:07.783Z,965.32
2016-12-25T12:23:07.400Z,965.20
2016-12-25T12:24:08.005Z,965.24
2016-12-25T12:25:07.632Z,965.29
2016-12-25T12:26:08.144Z,965.18
2016-12-25T12:27:07.716Z,965.13
2016-12-25T12:28:08.290Z,965.14
2016-12-25T12:29:07.923Z,965.29
2016-12-25T12:30:07.494Z,965.16
2016-12-25T12:31:08.096Z,965.21
2016-12-25T12:32:07.591Z,965.23
2016-12-25T12:33:08.186Z,965.23
2016-12-25T12:34:07.755Z,965.29
2016-12-25T12:35:07.949Z,965.20